createdAt,value
2023-04-12T00:02:28.303Z,13.91
2023-04-12T00:04:58.130Z,13.04
2023-04-12T00:07:26.255Z,12.35
2023-04-12T00:09:54.053Z,11.85
2023-04-12T00:12:22.134Z,11.62
2023-04-12T00:14:50.114Z,12.35
2023-04-12T00:17:19.443Z,13.20
2023-04-12T00:19:48.679Z,13.82
2023-04-12T00:22:16.986Z,14.24
2023-04-12T00:24:45.025Z,14.67
2023-04-12T00:27:12.868Z,14.88
2023-04-12T00:29:41.453Z,14.16
2023-04-12T00:32:10.755Z,13.30
2023-04-12T00:34:38.737Z,12.66
2023-04-12T00:37:06.563Z,12.16
2023-04-12T00:39:34.410Z,11.79
2023-04-12T00:42:05.814Z,11.70
2023-04-12T00:44:35.515Z,12.75
2023-04-12T00:47:05.564Z,13.82
2023-04-12T00:49:34.654Z,14.59
2023-04-12T00:52:08.731Z,15.12
2023-04-12T00:54:37.950Z,15.29
2023-04-12T00:57:06.455Z,14.47
2023-04-12T00:59:34.386Z,13.55
2023-04-12T01:02:03.383Z,12.85
2023-04-12T01:04:32.197Z,12.35
2023-04-12T01:07:15.873Z,12.15
2023-04-12T01:09:52.170Z,13.31
2023-04-12T01:12:38.684Z,14.40
2023-04-12T01:15:14.213Z,15.09
2023-04-12T01:18:22.317Z,14.92
2023-04-12T01:21:19.981Z,13.69
2023-04-12T01:23:59.732Z,12.75
2023-04-12T01:26:49.153Z,12.17
2023-04-12T01:29:20.799Z,11.72
2023-04-12T01:32:01.296Z,11.65
2023-04-12T01:34:31.704Z,12.79
2023-04-12T01:37:02.602Z,13.78
2023-04-12T01:39:33.310Z,14.43
2023-04-12T01:42:01.197Z,14.76
2023-04-12T01:44:29.865Z,14.12
2023-04-12T01:46:57.976Z,13.23
2023-04-12T01:49:36.663Z,12.51
2023-04-12T01:52:12.893Z,11.92
2023-04-12T01:54:44.687Z,11.75
2023-04-12T01:57:14.919Z,12.81
2023-04-12T01:59:44.641Z,13.90
2023-04-12T02:02:13.723Z,14.60
2023-04-12T02:04:43.078Z,14.82
2023-04-12T02:07:12.583Z,14.00
2023-04-12T02:09:40.501Z,13.11
2023-04-12T02:12:09.375Z,12.43
2023-04-12T02:14:37.451Z,11.87
2023-04-12T02:17:05.836Z,11.72
2023-04-12T02:19:34.152Z,12.77
2023-04-12T02:22:02.453Z,13.84
2023-04-12T02:24:30.440Z,14.52
2023-04-12T02:26:59.404Z,14.79
2023-04-12T02:29:27.937Z,14.03
2023-04-12T02:31:56.104Z,13.13
2023-04-12T02:34:25.599Z,12.46
2023-04-12T02:37:00.345Z,11.93
2023-04-12T02:39:29.340Z,11.77
2023-04-12T02:41:58.572Z,12.77
2023-04-12T02:44:29.709Z,13.82
2023-04-12T02:47:10.076Z,14.60
2023-04-12T02:49:38.514Z,14.87
2023-04-12T02:52:07.791Z,14.13
2023-04-12T02:54:41.806Z,13.22
2023-04-12T02:57:16.355Z,12.53
2023-04-12T02:59:46.688Z,12.02
2023-04-12T03:02:26.792Z,11.61
2023-04-12T03:04:59.264Z,11.62
2023-04-12T03:07:38.838Z,13.16
2023-04-12T03:10:07.893Z,14.53
2023-04-12T03:12:38.712Z,15.29
2023-04-12T03:15:14.880Z,15.50
2023-04-12T03:17:46.111Z,14.61
2023-04-12T03:20:14.613Z,13.62
2023-04-12T03:22:47.893Z,12.90
2023-04-12T03:25:18.098Z,12.36
2023-04-12T03:27:49.810Z,11.91
2023-04-12T03:30:18.665Z,11.58
2023-04-12T03:32:47.049Z,11.60
2023-04-12T03:35:15.351Z,12.89
2023-04-12T03:37:44.167Z,13.93
2023-04-12T03:40:13.635Z,14.55
2023-04-12T03:42:45.470Z,14.76
2023-04-12T03:45:15.004Z,14.02
2023-04-12T03:47:46.702Z,13.19
2023-04-12T03:50:15.241Z,12.58
2023-04-12T03:52:49.450Z,12.11
2023-04-12T03:55:18.535Z,11.75
2023-04-12T03:57:47.215Z,11.69
2023-04-12T04:00:16.045Z,12.74
2023-04-12T04:03:03.730Z,13.96
2023-04-12T04:05:35.556Z,14.65
2023-04-12T04:08:07.076Z,14.87
2023-04-12T04:10:43.023Z,14.09
2023-04-12T04:13:11.226Z,13.30
2023-04-12T04:15:39.756Z,12.71
2023-04-12T04:18:07.866Z,12.28
2023-04-12T04:20:36.123Z,11.95
2023-04-12T04:23:03.929Z,11.93
2023-04-12T04:25:32.026Z,12.94
2023-04-12T04:28:02.924Z,13.98
2023-04-12T04:30:34.450Z,14.66
2023-04-12T04:33:03.085Z,14.91
2023-04-12T04:35:31.712Z,14.23
2023-04-12T04:38:26.317Z,13.33
2023-04-12T04:41:02.482Z,12.76
2023-04-12T04:43:41.057Z,12.33
2023-04-12T04:46:08.967Z,12.01
2023-04-12T04:48:37.244Z,11.94
2023-04-12T04:51:05.491Z,12.90
2023-04-12T04:53:33.348Z,13.93
2023-04-12T04:56:01.565Z,14.69
2023-04-12T04:58:33.048Z,15.26
2023-04-12T05:01:00.961Z,15.53
2023-04-12T05:03:31.030Z,14.79
2023-04-12T05:06:01.548Z,13.92
2023-04-12T05:08:29.936Z,13.28
2023-04-12T05:10:58.406Z,12.83
2023-04-12T05:13:29.516Z,12.43
2023-04-12T05:15:57.773Z,12.34
2023-04-12T05:18:25.717Z,13.50
2023-04-12T05:20:53.936Z,14.73
2023-04-12T05:23:22.104Z,15.53
2023-04-12T05:25:52.089Z,15.83
2023-04-12T05:28:20.590Z,15.10
2023-04-12T05:30:48.669Z,14.26
2023-04-12T05:33:19.881Z,13.64
2023-04-12T05:35:48.136Z,13.21
2023-04-12T05:38:16.169Z,12.87
2023-04-12T05:40:44.452Z,12.61
2023-04-12T05:43:13.258Z,12.66
2023-04-12T05:45:42.098Z,13.76
2023-04-12T05:48:10.351Z,14.78
2023-04-12T05:50:38.783Z,15.52
2023-04-12T05:53:06.733Z,15.98
2023-04-12T05:55:37.789Z,15.34
2023-04-12T05:58:06.807Z,14.55
2023-04-12T06:00:36.413Z,13.99
2023-04-12T06:03:05.302Z,13.58
2023-04-12T06:05:34.323Z,13.23
2023-04-12T06:08:03.066Z,12.93
2023-04-12T06:10:31.746Z,12.96
2023-04-12T06:12:59.646Z,14.21
2023-04-12T06:15:28.308Z,15.41
2023-04-12T06:17:56.526Z,15.97
2023-04-12T06:20:24.692Z,15.42
2023-04-12T06:22:53.021Z,14.66
2023-04-12T06:25:23.129Z,14.07
2023-04-12T06:27:51.598Z,13.66
2023-04-12T06:30:21.144Z,13.33
2023-04-12T06:32:52.479Z,13.02
2023-04-12T06:35:21.683Z,12.79
2023-04-12T06:37:50.190Z,12.84
2023-04-12T06:40:18.049Z,13.93
2023-04-12T06:42:45.913Z,15.07
2023-04-12T06:45:14.459Z,15.64
2023-04-12T06:47:42.473Z,15.09
2023-04-12T06:50:11.221Z,14.37
2023-04-12T06:52:39.413Z,13.82
2023-04-12T06:55:07.981Z,13.46
2023-04-12T06:57:36.042Z,13.22
2023-04-12T07:00:04.627Z,13.06
2023-04-12T07:02:32.901Z,12.89
2023-04-12T07:05:01.281Z,12.70
2023-04-12T07:07:29.260Z,12.54
2023-04-12T07:09:57.095Z,12.68
2023-04-12T07:12:25.019Z,13.88
2023-04-12T07:14:52.848Z,15.16
2023-04-12T07:17:21.649Z,15.80
2023-04-12T07:19:50.450Z,15.31
2023-04-12T07:22:18.209Z,14.60
2023-04-12T07:24:46.111Z,14.07
2023-04-12T07:27:14.125Z,13.68
2023-04-12T07:29:42.077Z,13.37
2023-04-12T07:32:11.044Z,13.10
2023-04-12T07:34:39.651Z,12.82
2023-04-12T07:37:07.540Z,12.57
2023-04-12T07:39:36.366Z,12.65
2023-04-12T07:42:04.550Z,14.17
2023-04-12T07:44:35.595Z,15.66
2023-04-12T07:47:05.136Z,16.18
2023-04-12T07:49:32.973Z,15.55
2023-04-12T07:52:00.884Z,14.81
2023-04-12T07:54:29.266Z,14.28
2023-04-12T07:57:02.696Z,13.94
2023-04-12T07:59:31.765Z,13.66
2023-04-12T08:02:00.820Z,13.44
2023-04-12T08:04:29.181Z,13.24
2023-04-12T08:06:57.098Z,13.01
2023-04-12T08:09:25.893Z,12.80
2023-04-12T08:11:54.162Z,12.62
2023-04-12T08:14:22.246Z,12.48
2023-04-12T08:16:50.193Z,12.57
2023-04-12T08:19:20.433Z,13.86
2023-04-12T08:21:48.238Z,15.26
2023-04-12T08:24:16.577Z,15.89
2023-04-12T08:26:44.524Z,15.49
2023-04-12T08:29:12.933Z,14.98
2023-04-12T08:31:41.113Z,14.62
2023-04-12T08:34:09.028Z,14.31
2023-04-12T08:36:36.849Z,14.06
2023-04-12T08:39:04.679Z,13.85
2023-04-12T08:41:36.039Z,13.70
2023-04-12T08:44:05.631Z,13.63
2023-04-12T08:46:37.300Z,13.68
2023-04-12T08:49:05.485Z,13.86
2023-04-12T08:51:34.971Z,13.98
2023-04-12T08:54:02.808Z,13.99
2023-04-12T08:56:32.133Z,13.97
2023-04-12T08:59:01.035Z,13.93
2023-04-12T09:01:29.537Z,13.88
2023-04-12T09:03:57.931Z,13.92
2023-04-12T09:06:26.364Z,14.01
2023-04-12T09:08:55.927Z,14.11
2023-04-12T09:11:28.746Z,14.16
2023-04-12T09:14:58.562Z,14.17
2023-04-12T09:17:32.487Z,14.12
2023-04-12T09:20:17.737Z,14.07
2023-04-12T09:22:49.839Z,14.04
2023-04-12T09:25:18.823Z,14.15
2023-04-12T09:28:30.540Z,14.34
2023-04-12T09:31:07.084Z,14.54
2023-04-12T09:33:37.933Z,14.68
2023-04-12T09:36:15.961Z,14.88
2023-04-12T09:39:02.309Z,15.15
2023-04-12T09:41:32.342Z,15.47
2023-04-12T09:44:08.502Z,15.73
2023-04-12T09:46:56.730Z,15.87
2023-04-12T09:49:42.427Z,15.86
2023-04-12T09:52:13.010Z,15.75
2023-04-12T09:54:46.273Z,15.61
2023-04-12T09:57:18.097Z,15.44
2023-04-12T09:59:53.567Z,15.24
2023-04-12T10:02:32.349Z,15.09
2023-04-12T10:05:15.522Z,15.10
2023-04-12T10:07:47.878Z,15.30
2023-04-12T10:10:18.555Z,15.58
2023-04-12T10:12:53.232Z,15.81
2023-04-12T10:15:30.793Z,16.02
2023-04-12T10:19:01.070Z,16.34
2023-04-12T10:21:31.492Z,16.58
2023-04-12T10:24:01.276Z,16.67
2023-04-12T10:26:31.296Z,16.73
2023-04-12T10:29:26.668Z,16.81
2023-04-12T10:31:58.006Z,16.95
2023-04-12T10:34:32.140Z,17.01
2023-04-12T10:37:02.322Z,17.03
2023-04-12T10:39:42.820Z,17.08
2023-04-12T10:42:27.467Z,17.05
2023-04-12T10:45:17.002Z,16.88
2023-04-12T10:47:54.725Z,16.65
2023-04-12T10:50:25.349Z,16.51
2023-04-12T10:53:13.581Z,16.50
2023-04-12T10:55:42.976Z,16.51
2023-04-12T10:58:31.652Z,16.63
2023-04-12T11:00:59.568Z,16.79
2023-04-12T11:03:28.522Z,16.81
2023-04-12T11:06:20.136Z,16.73
2023-04-12T11:09:42.754Z,16.61
2023-04-12T11:12:15.430Z,16.60
2023-04-12T11:14:44.826Z,16.63
2023-04-12T11:17:12.852Z,16.64
2023-04-12T11:19:46.224Z,16.71
2023-04-12T11:22:16.160Z,16.83
2023-04-12T11:24:55.601Z,16.93
2023-04-12T11:27:25.715Z,16.99
2023-04-12T11:29:56.292Z,17.04
2023-04-12T11:32:27.650Z,17.06
2023-04-12T11:34:57.005Z,17.05
2023-04-12T11:37:27.319Z,17.12
2023-04-12T11:39:58.338Z,17.21
2023-04-12T11:42:29.339Z,17.29
2023-04-12T11:45:01.929Z,17.35
2023-04-12T11:47:31.977Z,17.33
2023-04-12T11:50:00.252Z,17.25
2023-04-12T11:52:30.754Z,17.16
2023-04-12T11:55:06.406Z,17.09
2023-04-12T11:57:35.014Z,17.19
2023-04-12T12:00:06.909Z,17.46
2023-04-12T12:02:52.341Z,17.81
2023-04-12T12:05:30.224Z,18.06
2023-04-12T12:08:00.074Z,18.11
2023-04-12T12:10:43.769Z,18.08
2023-04-12T12:13:15.548Z,18.09
2023-04-12T12:15:46.815Z,18.11
2023-04-12T12:18:14.723Z,18.09
2023-04-12T12:20:48.074Z,18.01
2023-04-12T12:23:32.800Z,17.96
2023-04-12T12:27:07.604Z,17.96
2023-04-12T12:28:53.763Z,17.96
2023-04-12T12:31:24.110Z,17.99
2023-04-12T12:33:59.843Z,18.01
2023-04-12T12:36:36.402Z,18.01
2023-04-12T12:39:10.654Z,18.06
2023-04-12T12:41:40.437Z,18.14
2023-04-12T12:44:09.028Z,18.24
2023-04-12T12:49:08.455Z,18.24
2023-04-12T12:51:36.633Z,18.30
2023-04-12T12:54:04.576Z,18.36
2023-04-12T12:56:32.529Z,18.42
2023-04-12T12:59:00.787Z,18.47
2023-04-12T13:01:28.697Z,18.50
2023-04-12T13:03:57.314Z,18.52
2023-04-12T13:06:28.499Z,18.50
2023-04-12T13:08:56.780Z,18.46
2023-04-12T13:11:25.069Z,18.35
2023-04-12T13:13:53.011Z,18.25
2023-04-12T13:16:21.058Z,18.14
2023-04-12T13:18:49.258Z,17.98
2023-04-12T13:21:17.124Z,17.81
2023-04-12T13:23:45.237Z,17.64
2023-04-12T13:26:13.074Z,17.44
2023-04-12T13:28:41.028Z,17.23
2023-04-12T13:31:08.895Z,17.05
2023-04-12T13:33:36.951Z,16.96
2023-04-12T13:36:05.216Z,16.93
2023-04-12T13:38:33.306Z,16.96
2023-04-12T13:41:01.268Z,16.99
2023-04-12T13:43:29.181Z,17.02
2023-04-12T13:45:57.183Z,17.08
2023-04-12T13:48:25.188Z,17.12
2023-04-12T13:50:54.320Z,17.13
2023-04-12T13:53:23.548Z,17.16
2023-04-12T13:55:51.586Z,17.18
2023-04-12T13:58:19.359Z,17.19
2023-04-12T14:00:47.526Z,17.20
2023-04-12T14:03:16.439Z,17.17
2023-04-12T14:05:44.862Z,17.11
2023-04-12T14:08:12.708Z,17.02
2023-04-12T14:10:40.988Z,16.91
2023-04-12T14:13:08.912Z,16.77
2023-04-12T14:15:36.880Z,16.63
2023-04-12T14:18:04.922Z,16.47
2023-04-12T14:20:32.966Z,16.34
2023-04-12T14:23:01.342Z,16.23
2023-04-12T14:25:29.317Z,16.13
2023-04-12T14:27:58.012Z,16.02
2023-04-12T14:30:26.394Z,15.91
2023-04-12T14:32:54.402Z,15.80
2023-04-12T14:35:22.484Z,15.72
2023-04-12T14:37:50.606Z,15.64
2023-04-12T14:40:19.286Z,15.56
2023-04-12T14:42:47.121Z,15.47
2023-04-12T14:45:15.759Z,15.39
2023-04-12T14:47:43.665Z,15.31
2023-04-12T14:50:11.637Z,15.24
2023-04-12T14:52:40.306Z,15.20
2023-04-12T14:55:10.566Z,15.17
2023-04-12T14:57:39.353Z,15.15
2023-04-12T15:00:13.893Z,15.14
2023-04-12T15:02:44.452Z,15.12
2023-04-12T15:05:12.600Z,15.09
2023-04-12T15:07:41.548Z,15.05
2023-04-12T15:10:11.070Z,15.00
2023-04-12T15:12:38.904Z,14.95
2023-04-12T15:15:07.933Z,14.89
2023-04-12T15:17:36.026Z,14.85
2023-04-12T15:20:15.894Z,14.81
2023-04-12T15:22:44.052Z,14.77
2023-04-12T15:25:12.081Z,14.75
2023-04-12T15:27:40.081Z,14.75
2023-04-12T15:30:14.550Z,14.75
2023-04-12T15:32:42.820Z,14.73
2023-04-12T15:35:25.358Z,14.71
2023-04-12T15:37:55.518Z,14.72
2023-04-12T15:40:24.388Z,14.76
2023-04-12T15:42:52.493Z,14.82
2023-04-12T15:45:20.421Z,14.91
2023-04-12T15:47:48.653Z,15.05
2023-04-12T15:50:16.716Z,15.23
2023-04-12T15:52:44.645Z,15.42
2023-04-12T15:55:13.002Z,15.59
2023-04-12T15:57:41.021Z,15.71
2023-04-12T16:00:21.082Z,15.77
2023-04-12T16:02:56.256Z,15.78
2023-04-12T16:05:25.084Z,15.74
2023-04-12T16:07:54.305Z,15.65
2023-04-12T16:10:25.546Z,15.53
2023-04-12T16:12:54.710Z,15.39
2023-04-12T16:15:22.925Z,15.25
2023-04-12T16:17:54.576Z,15.11
2023-04-12T16:20:24.475Z,14.97
2023-04-12T16:22:54.618Z,14.86
2023-04-12T16:25:24.454Z,14.75
2023-04-12T16:27:52.766Z,14.66
2023-04-12T16:30:22.630Z,14.54
2023-04-12T16:32:53.941Z,14.43
2023-04-12T16:35:21.968Z,14.32
2023-04-12T16:37:50.189Z,14.20
2023-04-12T16:40:18.347Z,14.08
2023-04-12T16:42:46.721Z,13.96
2023-04-12T16:45:15.394Z,13.85
2023-04-12T16:47:46.116Z,13.73
2023-04-12T16:50:15.606Z,13.63
2023-04-12T16:52:43.465Z,13.54
2023-04-12T16:55:12.393Z,13.45
2023-04-12T16:57:41.819Z,13.38
2023-04-12T17:00:22.291Z,13.31
2023-04-12T17:02:52.031Z,13.23
2023-04-12T17:05:21.678Z,13.15
2023-04-12T17:07:51.819Z,13.06
2023-04-12T17:10:24.827Z,12.95
2023-04-12T17:12:55.572Z,12.83
2023-04-12T17:15:25.440Z,12.74
2023-04-12T17:18:00.355Z,12.65
2023-04-12T17:20:29.356Z,12.55
2023-04-12T17:22:59.051Z,12.48
2023-04-12T17:25:31.334Z,12.39
2023-04-12T17:28:00.981Z,12.32
2023-04-12T17:30:29.209Z,12.26
2023-04-12T17:32:59.518Z,12.21
2023-04-12T17:35:27.926Z,12.15
2023-04-12T17:37:56.533Z,12.10
2023-04-12T17:40:24.470Z,12.02
2023-04-12T17:42:52.537Z,11.97
2023-04-12T17:45:21.930Z,11.91
2023-04-12T17:47:50.087Z,11.85
2023-04-12T17:50:18.000Z,11.81
2023-04-12T17:52:46.202Z,11.78
2023-04-12T17:55:14.038Z,11.74
2023-04-12T17:57:42.198Z,11.71
2023-04-12T18:00:13.619Z,11.68
2023-04-12T18:02:44.023Z,11.64
2023-04-12T18:05:13.579Z,11.61
2023-04-12T18:07:42.626Z,11.57
2023-04-12T18:10:15.444Z,11.71
2023-04-12T18:12:45.370Z,13.12
2023-04-12T18:15:13.350Z,14.30
2023-04-12T18:17:41.541Z,14.98
2023-04-12T18:20:11.005Z,15.26
2023-04-12T18:22:39.021Z,14.70
2023-04-12T18:25:08.315Z,14.03
2023-04-12T18:27:36.562Z,13.55
2023-04-12T18:30:05.404Z,13.20
2023-04-12T18:32:33.328Z,12.95
2023-04-12T18:35:02.199Z,12.75
2023-04-12T18:37:30.182Z,12.59
2023-04-12T18:39:58.599Z,12.44
2023-04-12T18:42:26.431Z,12.32
2023-04-12T18:44:56.430Z,12.20
2023-04-12T18:47:26.570Z,12.09
2023-04-12T18:49:55.243Z,11.99
2023-04-12T18:52:23.229Z,11.89
2023-04-12T18:54:51.490Z,11.81
2023-04-12T18:57:19.431Z,11.72
2023-04-12T18:59:49.130Z,11.63
2023-04-12T19:02:18.390Z,11.77
2023-04-12T19:04:47.562Z,13.19
2023-04-12T19:07:15.378Z,14.60
2023-04-12T19:09:43.410Z,15.51
2023-04-12T19:12:11.477Z,15.83
2023-04-12T19:14:39.449Z,15.14
2023-04-12T19:17:08.161Z,14.35
2023-04-12T19:19:36.399Z,13.74
2023-04-12T19:22:06.620Z,13.29
2023-04-12T19:24:35.186Z,12.92
2023-04-12T19:27:03.785Z,12.61
2023-04-12T19:29:31.726Z,12.34
2023-04-12T19:32:01.476Z,12.08
2023-04-12T19:34:29.535Z,11.85
2023-04-12T19:36:57.407Z,11.63
2023-04-12T19:39:27.069Z,11.42
2023-04-12T19:41:54.899Z,11.22
2023-04-12T19:44:23.400Z,11.03
2023-04-12T19:46:52.271Z,11.09
2023-04-12T19:49:22.366Z,12.45
2023-04-12T19:51:54.537Z,13.84
2023-04-12T19:54:25.584Z,14.61
2023-04-12T19:56:53.694Z,14.81
2023-04-12T19:59:21.928Z,14.06
2023-04-12T20:01:50.558Z,13.21
2023-04-12T20:04:21.405Z,12.59
2023-04-12T20:06:52.264Z,12.13
2023-04-12T20:09:25.457Z,11.76
2023-04-12T20:11:53.381Z,11.44
2023-04-12T20:14:21.824Z,11.16
2023-04-12T20:16:50.057Z,10.92
2023-04-12T20:19:18.277Z,10.69
2023-04-12T20:21:47.564Z,10.47
2023-04-12T20:24:15.480Z,10.49
2023-04-12T20:26:46.636Z,11.69
2023-04-12T20:29:15.261Z,12.92
2023-04-12T20:31:43.542Z,13.76
2023-04-12T20:34:11.446Z,14.15
2023-04-12T20:36:39.375Z,13.45
2023-04-12T20:39:07.215Z,12.58
2023-04-12T20:41:38.530Z,11.93
2023-04-12T20:44:06.676Z,11.44
2023-04-12T20:46:36.911Z,11.05
2023-04-12T20:49:06.898Z,10.74
2023-04-12T20:51:34.718Z,10.45
2023-04-12T20:54:03.317Z,10.20
2023-04-12T20:56:31.321Z,9.96
2023-04-12T20:59:00.954Z,9.98
2023-04-12T21:01:28.792Z,11.27
2023-04-12T21:03:59.796Z,12.77
2023-04-12T21:06:28.428Z,13.71
2023-04-12T21:08:56.608Z,14.08
2023-04-12T21:11:27.323Z,13.28
2023-04-12T21:13:55.169Z,12.31
2023-04-12T21:16:25.183Z,11.60
2023-04-12T21:18:53.845Z,11.08
2023-04-12T21:21:22.600Z,10.68
2023-04-12T21:23:51.976Z,10.31
2023-04-12T21:26:20.805Z,10.00
2023-04-12T21:28:48.768Z,9.73
2023-04-12T21:31:17.658Z,9.48
2023-04-12T21:33:45.467Z,9.25
2023-04-12T21:36:13.334Z,9.34
2023-04-12T21:38:41.408Z,10.86
2023-04-12T21:41:12.004Z,12.33
2023-04-12T21:43:41.056Z,13.33
2023-04-12T21:46:09.193Z,13.71
2023-04-12T21:48:37.512Z,12.85
2023-04-12T21:51:06.298Z,11.85
2023-04-12T21:53:34.079Z,11.12
2023-04-12T21:56:02.110Z,10.58
2023-04-12T21:58:30.183Z,10.17
2023-04-12T22:00:58.515Z,9.83
2023-04-12T22:03:26.479Z,9.53
2023-04-12T22:06:04.357Z,9.24
2023-04-12T22:08:33.374Z,8.98
2023-04-12T22:11:01.644Z,8.97
2023-04-12T22:13:30.988Z,10.16
2023-04-12T22:16:00.917Z,11.34
2023-04-12T22:18:28.737Z,12.11
2023-04-12T22:20:57.901Z,12.38
2023-04-12T22:23:26.265Z,11.64
2023-04-12T22:25:58.574Z,10.79
2023-04-12T22:28:26.639Z,10.13
2023-04-12T22:30:57.235Z,9.66
2023-04-12T22:33:25.301Z,9.29
2023-04-12T22:35:53.402Z,8.97
2023-04-12T22:38:21.651Z,8.69
2023-04-12T22:40:49.819Z,8.42
2023-04-12T22:43:21.056Z,8.47
2023-04-12T22:45:48.947Z,10.01
2023-04-12T22:48:16.872Z,11.16
2023-04-12T22:50:47.783Z,11.83
2023-04-12T22:53:16.016Z,12.13
2023-04-12T22:55:45.049Z,11.39
2023-04-12T22:58:12.992Z,10.51
2023-04-12T23:00:41.152Z,9.84
2023-04-12T23:03:11.384Z,9.34
2023-04-12T23:05:44.842Z,8.95
2023-04-12T23:08:18.059Z,8.59
2023-04-12T23:10:46.242Z,8.29
2023-04-12T23:13:14.150Z,8.04
2023-04-12T23:15:45.337Z,8.04
2023-04-12T23:18:13.483Z,9.29
2023-04-12T23:20:44.906Z,10.49
2023-04-12T23:23:12.755Z,11.29
2023-04-12T23:25:45.519Z,11.84
2023-04-12T23:28:15.630Z,11.99
2023-04-12T23:30:49.044Z,11.15
2023-04-12T23:33:20.327Z,10.22
2023-04-12T23:35:52.810Z,9.53
2023-04-12T23:38:32.406Z,9.01
2023-04-12T23:41:02.587Z,8.56
2023-04-12T23:43:34.992Z,8.21
2023-04-12T23:46:03.267Z,7.90
2023-04-12T23:48:32.883Z,7.63
2023-04-12T23:51:00.874Z,7.56
2023-04-12T23:53:28.734Z,8.69
2023-04-12T23:55:56.741Z,10.06
2023-04-12T23:58:26.201Z,10.97
